createdAt,value
2019-05-20T00:00:28.233Z,94936.48
2019-05-20T00:02:56.717Z,94931.14
2019-05-20T00:05:25.366Z,94936.41
2019-05-20T00:07:53.925Z,94937.97
2019-05-20T00:10:22.388Z,94941.70
2019-05-20T00:12:50.790Z,94939.50
2019-05-20T00:15:19.484Z,94937.33
2019-05-20T00:17:47.881Z,94939.36
2019-05-20T00:20:16.520Z,94942.55
2019-05-20T00:22:45.144Z,94938.17
2019-05-20T00:25:13.613Z,94940.12
2019-05-20T00:27:42.013Z,94935.43
2019-05-20T00:30:11.189Z,94941.71
2019-05-20T00:32:41.598Z,94934.81
2019-05-20T00:35:10.341Z,94931.50
2019-05-20T00:37:38.760Z,94918.13
2019-05-20T00:40:08.096Z,94919.34
2019-05-20T00:42:36.567Z,94925.34
2019-05-20T00:45:06.033Z,94926.74
2019-05-20T00:47:34.432Z,94925.47
2019-05-20T00:50:03.263Z,94924.31
2019-05-20T00:52:32.023Z,94922.77
2019-05-20T00:55:00.421Z,94918.52
2019-05-20T00:57:28.840Z,94915.18
2019-05-20T00:59:57.356Z,94913.77
2019-05-20T01:02:25.778Z,94908.17
2019-05-20T01:04:54.147Z,94911.94
2019-05-20T01:07:22.672Z,94908.70
2019-05-20T01:09:51.068Z,94906.71
2019-05-20T01:12:19.483Z,94904.22
2019-05-20T01:14:48.057Z,94901.56
2019-05-20T01:17:16.460Z,94893.52
2019-05-20T01:19:44.858Z,94893.39
2019-05-20T01:22:13.286Z,94893.73
2019-05-20T01:24:41.690Z,94891.47
2019-05-20T01:27:10.096Z,94893.25
2019-05-20T01:29:38.529Z,94892.22
2019-05-20T01:32:06.923Z,94894.08
2019-05-20T01:34:35.321Z,94898.30
2019-05-20T01:37:03.957Z,94896.80
2019-05-20T01:39:32.373Z,94887.89
2019-05-20T01:42:00.755Z,94888.47
2019-05-20T01:44:29.293Z,94894.37
2019-05-20T01:46:57.764Z,94883.67
2019-05-20T01:49:26.160Z,94883.97
2019-05-20T01:51:54.609Z,94891.95
2019-05-20T01:54:23.007Z,94885.30
2019-05-20T01:56:51.473Z,94891.70
2019-05-20T01:59:20.087Z,94895.65
2019-05-20T02:01:48.485Z,94897.28
2019-05-20T02:04:16.875Z,94898.14
2019-05-20T02:06:45.437Z,94902.94
2019-05-20T02:09:13.837Z,94902.84
2019-05-20T02:11:42.242Z,94904.35
2019-05-20T02:14:12.302Z,94896.72
2019-05-20T02:16:40.697Z,94888.25
2019-05-20T02:19:09.377Z,94884.08
2019-05-20T02:21:37.944Z,94860.52
2019-05-20T02:24:06.351Z,94865.45
2019-05-20T02:26:35.092Z,94871.28
2019-05-20T02:29:04.474Z,94872.06
2019-05-20T02:31:32.870Z,94870.59
2019-05-20T02:34:01.258Z,94869.52
2019-05-20T02:36:29.800Z,94875.25
2019-05-20T02:38:58.286Z,94874.55
2019-05-20T02:41:27.301Z,94873.31
2019-05-20T02:43:55.907Z,94874.55
2019-05-20T02:46:24.389Z,94878.55
2019-05-20T02:48:52.770Z,94882.31
2019-05-20T02:51:22.829Z,94893.09
2019-05-20T02:53:51.226Z,94884.41
2019-05-20T02:56:19.624Z,94879.98
2019-05-20T02:58:48.226Z,94873.91
2019-05-20T03:01:16.622Z,94873.33
2019-05-20T03:03:45.151Z,94871.11
2019-05-20T03:06:13.776Z,94867.81
2019-05-20T03:08:42.175Z,94874.38
2019-05-20T03:11:10.579Z,94864.00
2019-05-20T03:13:39.114Z,94863.74
2019-05-20T03:16:07.537Z,94863.41
2019-05-20T03:18:35.934Z,94858.23
2019-05-20T03:21:04.389Z,94857.08
2019-05-20T03:23:32.766Z,94858.88
2019-05-20T03:26:01.194Z,94864.69
2019-05-20T03:28:29.796Z,94861.89
2019-05-20T03:30:58.191Z,94866.47
2019-05-20T03:33:26.628Z,94866.74
2019-05-20T03:35:55.034Z,94867.10
2019-05-20T03:38:23.414Z,94857.73
2019-05-20T03:40:51.812Z,94862.53
2019-05-20T03:43:20.241Z,94859.13
2019-05-20T03:45:48.644Z,94858.90
2019-05-20T03:48:17.035Z,94855.13
2019-05-20T03:50:45.523Z,94853.85
2019-05-20T03:53:13.918Z,94851.55
2019-05-20T03:55:42.896Z,94848.89
2019-05-20T03:58:13.639Z,94846.80
2019-05-20T04:00:46.494Z,94854.92
2019-05-20T04:03:16.718Z,94859.62
2019-05-20T04:05:45.422Z,94855.77
2019-05-20T04:08:13.831Z,94858.78
2019-05-20T04:10:42.363Z,94850.84
2019-05-20T04:13:10.765Z,94843.16
2019-05-20T04:15:39.176Z,94839.88
2019-05-20T04:18:07.605Z,94830.12
2019-05-20T04:20:37.648Z,94833.05
2019-05-20T04:23:06.380Z,94829.23
2019-05-20T04:25:34.968Z,94828.08
2019-05-20T04:28:03.373Z,94826.45
2019-05-20T04:30:31.757Z,94830.21
2019-05-20T04:33:00.328Z,94824.41
2019-05-20T04:35:28.727Z,94827.02
2019-05-20T04:37:57.130Z,94819.66
2019-05-20T04:40:25.774Z,94821.24
2019-05-20T04:42:54.173Z,94818.72
2019-05-20T04:45:22.579Z,94821.33
2019-05-20T04:47:51.318Z,94811.44
2019-05-20T04:50:19.723Z,94805.27
2019-05-20T04:52:48.123Z,94810.28
2019-05-20T04:55:16.789Z,94808.51
2019-05-20T04:57:45.515Z,94806.65
2019-05-20T05:00:14.457Z,94804.52
2019-05-20T05:02:43.820Z,94805.67
2019-05-20T05:05:12.732Z,94804.45
2019-05-20T05:07:41.131Z,94816.25
2019-05-20T05:10:10.686Z,94812.78
2019-05-20T05:12:39.152Z,94813.14
2019-05-20T05:15:08.690Z,94812.74
2019-05-20T05:17:37.389Z,94811.02
2019-05-20T05:20:06.649Z,94820.95
2019-05-20T05:22:35.100Z,94810.89
2019-05-20T05:25:04.882Z,94812.17
2019-05-20T05:27:33.276Z,94811.87
2019-05-20T05:30:01.694Z,94806.22
2019-05-20T05:32:42.524Z,94810.70
2019-05-20T05:35:16.443Z,94813.55
2019-05-20T05:37:45.094Z,94808.63
2019-05-20T05:40:14.311Z,94817.47
2019-05-20T05:42:42.881Z,94811.49
2019-05-20T05:45:12.839Z,94819.20
2019-05-20T05:47:41.273Z,94827.98
2019-05-20T05:50:10.098Z,94825.63
2019-05-20T05:52:38.494Z,94834.11
2019-05-20T05:55:07.264Z,94829.31
2019-05-20T05:57:38.340Z,94832.36
2019-05-20T06:00:08.078Z,94825.13
2019-05-20T06:02:36.509Z,94818.82
2019-05-20T06:05:05.944Z,94818.80
2019-05-20T06:07:34.494Z,94821.70
2019-05-20T06:10:02.920Z,94827.13
2019-05-20T06:12:31.326Z,94825.37
2019-05-20T06:14:59.737Z,94836.91
2019-05-20T06:17:30.272Z,94828.48
2019-05-20T06:19:58.392Z,94835.06
2019-05-20T06:22:26.790Z,94834.48
2019-05-20T06:24:55.357Z,94840.07
2019-05-20T06:27:23.755Z,94832.41
2019-05-20T06:29:52.155Z,94839.05
2019-05-20T06:32:20.703Z,94837.41
2019-05-20T06:34:49.094Z,94831.83
2019-05-20T06:37:24.686Z,94829.22
2019-05-20T06:39:53.116Z,94835.28
2019-05-20T06:42:21.523Z,94832.04
2019-05-20T06:44:52.882Z,94829.45
2019-05-20T06:47:20.272Z,94836.17
2019-05-20T06:49:48.679Z,94838.09
2019-05-20T06:52:17.087Z,94844.58
2019-05-20T06:54:45.614Z,94836.30
2019-05-20T06:57:14.220Z,94846.48
2019-05-20T06:59:42.640Z,94841.17
2019-05-20T07:02:11.275Z,94847.07
2019-05-20T07:04:39.667Z,94849.30
2019-05-20T07:07:20.564Z,94854.61
2019-05-20T07:09:38.339Z,94852.39
2019-05-20T07:12:06.842Z,94855.64
2019-05-20T07:14:35.225Z,94855.21
2019-05-20T07:17:03.663Z,94852.81
2019-05-20T07:19:32.062Z,94868.96
2019-05-20T07:22:00.460Z,94852.77
2019-05-20T07:24:29.039Z,94849.16
2019-05-20T07:26:57.444Z,94856.53
2019-05-20T07:29:25.842Z,94853.08
2019-05-20T07:31:54.296Z,94851.23
2019-05-20T07:34:22.692Z,94858.67
2019-05-20T07:37:02.702Z,94863.48
2019-05-20T07:39:21.342Z,94866.66
2019-05-20T07:41:49.732Z,94875.79
2019-05-20T07:44:18.130Z,94870.41
2019-05-20T07:46:46.909Z,94883.16
2019-05-20T07:49:15.933Z,94870.56
2019-05-20T07:51:45.362Z,94870.92
2019-05-20T07:54:15.093Z,94865.17
2019-05-20T07:56:46.948Z,94862.88
2019-05-20T07:59:17.826Z,94877.89
2019-05-20T08:01:46.254Z,94872.42
2019-05-20T08:04:14.699Z,94879.92
2019-05-20T08:06:43.152Z,94878.01
2019-05-20T08:09:11.826Z,94887.30
2019-05-20T08:11:40.453Z,94891.27
2019-05-20T08:14:08.854Z,94882.30
2019-05-20T08:16:37.436Z,94869.52
2019-05-20T08:19:05.976Z,94875.95
2019-05-20T08:21:34.378Z,94878.91
2019-05-20T08:24:03.035Z,94873.22
2019-05-20T08:26:31.489Z,94874.59
2019-05-20T08:28:59.863Z,94875.63
2019-05-20T08:31:28.447Z,94880.34
2019-05-20T08:33:56.983Z,94882.20
2019-05-20T08:36:25.371Z,94882.92
2019-05-20T08:38:53.811Z,94882.20
2019-05-20T08:41:22.270Z,94889.91
2019-05-20T08:43:50.716Z,94883.59
2019-05-20T08:46:19.238Z,94880.00
2019-05-20T08:48:47.640Z,94893.05
2019-05-20T08:51:16.040Z,94882.44
2019-05-20T08:53:44.469Z,94888.03
2019-05-20T08:56:12.887Z,94888.63
2019-05-20T08:58:41.275Z,94884.95
2019-05-20T09:01:11.586Z,94891.59
2019-05-20T09:03:39.957Z,94892.77
2019-05-20T09:06:08.358Z,94879.58
2019-05-20T09:08:36.788Z,94891.09
2019-05-20T09:11:05.201Z,94889.10
2019-05-20T09:13:33.609Z,94884.10
2019-05-20T09:16:02.278Z,94890.88
2019-05-20T09:18:30.697Z,94900.27
2019-05-20T09:20:59.095Z,94893.84
2019-05-20T09:23:27.680Z,94894.79
2019-05-20T09:25:56.072Z,94907.75
2019-05-20T09:28:24.469Z,94899.78
2019-05-20T09:30:53.503Z,94908.06
2019-05-20T09:33:22.641Z,94903.77
2019-05-20T09:35:51.569Z,94909.91
2019-05-20T09:38:21.424Z,94900.09
2019-05-20T09:40:50.248Z,94901.49
2019-05-20T09:43:18.685Z,94905.92
2019-05-20T09:45:47.117Z,94909.55
2019-05-20T09:48:15.758Z,94914.12
2019-05-20T09:50:44.294Z,94910.45
2019-05-20T09:53:12.748Z,94905.80
2019-05-20T09:55:41.392Z,94902.78
2019-05-20T09:58:09.857Z,94910.17
2019-05-20T10:00:38.590Z,94908.27
2019-05-20T10:03:07.804Z,94910.47
2019-05-20T10:05:37.430Z,94909.55
2019-05-20T10:08:08.219Z,94904.61
2019-05-20T10:10:36.898Z,94905.41
2019-05-20T10:13:05.514Z,94909.18
2019-05-20T10:15:34.887Z,94918.39
2019-05-20T10:18:03.294Z,94917.00
2019-05-20T10:20:31.698Z,94915.16
2019-05-20T10:23:00.134Z,94915.09
2019-05-20T10:25:28.531Z,94912.71
2019-05-20T10:27:57.805Z,94913.23
2019-05-20T10:30:27.075Z,94907.18
2019-05-20T10:32:55.465Z,94916.11
2019-05-20T10:35:23.886Z,94914.93
2019-05-20T10:37:52.317Z,94921.36
2019-05-20T10:40:20.797Z,94919.81
2019-05-20T10:42:49.257Z,94919.59
2019-05-20T10:45:19.765Z,94915.45
2019-05-20T10:47:48.158Z,94914.88
2019-05-20T10:50:16.731Z,94914.72
2019-05-20T10:52:46.089Z,94908.81
2019-05-20T10:55:15.622Z,94916.20
2019-05-20T10:57:44.022Z,94913.16
2019-05-20T11:00:13.590Z,94920.77
2019-05-20T11:02:42.003Z,94930.06
2019-05-20T11:05:10.824Z,94922.23
2019-05-20T11:07:39.475Z,94932.64
2019-05-20T11:10:08.381Z,94938.02
2019-05-20T11:12:36.993Z,94934.56
2019-05-20T11:15:09.327Z,94938.62
2019-05-20T11:17:37.819Z,94940.75
2019-05-20T11:20:08.334Z,94939.42
2019-05-20T11:22:38.413Z,94944.98
2019-05-20T11:25:07.789Z,94951.31
2019-05-20T11:27:36.181Z,94949.70
2019-05-20T11:30:07.529Z,94956.62
2019-05-20T11:32:35.930Z,94956.34
2019-05-20T11:35:07.177Z,94959.00
2019-05-20T11:37:35.750Z,94958.53
2019-05-20T11:40:07.197Z,94954.93
2019-05-20T11:42:35.637Z,94956.57
2019-05-20T11:45:10.090Z,94951.53
2019-05-20T11:47:38.500Z,94950.42
2019-05-20T11:50:08.729Z,94954.34
2019-05-20T11:52:37.420Z,94942.17
2019-05-20T11:55:06.858Z,94947.03
2019-05-20T11:57:35.341Z,94946.81
2019-05-20T12:00:06.351Z,94950.58
2019-05-20T12:02:34.747Z,94955.96
2019-05-20T12:05:03.408Z,94960.78
2019-05-20T12:07:31.897Z,94955.30
2019-05-20T12:10:00.305Z,94959.66
2019-05-20T12:12:28.767Z,94957.73
2019-05-20T12:14:58.120Z,94958.26
2019-05-20T12:17:26.518Z,94959.06
2019-05-20T12:19:54.919Z,94960.17
2019-05-20T12:22:24.699Z,94960.98
2019-05-20T12:24:53.099Z,94969.69
2019-05-20T12:27:21.505Z,94969.48
2019-05-20T12:29:50.028Z,94968.95
2019-05-20T12:32:18.436Z,94970.49
2019-05-20T12:34:46.833Z,94972.56
2019-05-20T12:37:15.359Z,94974.34
2019-05-20T12:39:43.766Z,94978.55
2019-05-20T12:42:12.294Z,94981.95
2019-05-20T12:44:41.034Z,94977.58
2019-05-20T12:47:09.509Z,94978.84
2019-05-20T12:49:38.040Z,94976.19
2019-05-20T12:52:06.621Z,94990.27
2019-05-20T12:54:35.030Z,94991.22
2019-05-20T12:57:03.443Z,94984.72
2019-05-20T12:59:31.997Z,94982.20
2019-05-20T13:02:00.393Z,94986.33
2019-05-20T13:04:28.803Z,94981.16
2019-05-20T13:06:57.450Z,94989.26
2019-05-20T13:09:25.911Z,94984.61
2019-05-20T13:11:54.451Z,94979.65
2019-05-20T13:14:22.889Z,94973.81
2019-05-20T13:16:51.420Z,94978.08
2019-05-20T13:19:19.797Z,94980.73
2019-05-20T13:21:48.327Z,94980.45
2019-05-20T13:24:16.755Z,94986.28
2019-05-20T13:26:45.171Z,94992.19
2019-05-20T13:29:13.868Z,94993.59
2019-05-20T13:31:42.277Z,94990.62
2019-05-20T13:34:10.687Z,94993.59
2019-05-20T13:36:39.311Z,94991.73
2019-05-20T13:39:08.244Z,94993.17
2019-05-20T13:41:36.711Z,94998.76
2019-05-20T13:44:05.374Z,95003.05
2019-05-20T13:46:33.784Z,95000.09
2019-05-20T13:49:02.186Z,95003.93
2019-05-20T13:51:30.708Z,94998.09
2019-05-20T13:53:59.101Z,95000.27
2019-05-20T13:56:27.582Z,95005.36
2019-05-20T13:58:56.131Z,95005.36
2019-05-20T14:01:24.530Z,95000.99
2019-05-20T14:03:56.730Z,95007.11
2019-05-20T14:06:23.229Z,95000.75
2019-05-20T14:08:51.627Z,94999.42
2019-05-20T14:11:33.768Z,95011.69
2019-05-20T14:13:50.329Z,95007.39
2019-05-20T14:16:18.731Z,95007.31
2019-05-20T14:18:47.131Z,95008.57
2019-05-20T14:21:15.653Z,95010.42
2019-05-20T14:23:44.047Z,95009.37
2019-05-20T14:26:12.466Z,95013.36
2019-05-20T14:28:41.097Z,95016.53
2019-05-20T14:31:09.648Z,95014.30
2019-05-20T14:33:38.048Z,95017.09
2019-05-20T14:36:06.603Z,95009.27
2019-05-20T14:38:35.815Z,95022.01
2019-05-20T14:41:20.417Z,95015.58
2019-05-20T14:43:34.726Z,95016.11
2019-05-20T14:46:03.114Z,95021.20
2019-05-20T14:48:31.504Z,95021.80
2019-05-20T14:51:00.193Z,95022.19
2019-05-20T14:53:28.600Z,95017.27
2019-05-20T14:55:57.185Z,95018.88
2019-05-20T14:58:25.743Z,95019.72
2019-05-20T15:00:54.133Z,95022.58
2019-05-20T15:03:22.533Z,95018.80
2019-05-20T15:05:51.303Z,95020.94
2019-05-20T15:08:20.130Z,95013.88
2019-05-20T15:10:48.521Z,95012.62
2019-05-20T15:13:17.127Z,95006.89
2019-05-20T15:15:48.417Z,95008.61
2019-05-20T15:18:15.716Z,95010.08
2019-05-20T15:20:44.133Z,95010.25
2019-05-20T15:23:12.597Z,95005.82
2019-05-20T15:25:41.003Z,95000.89
2019-05-20T15:28:09.652Z,94995.68
2019-05-20T15:30:38.140Z,94992.50
2019-05-20T15:33:08.944Z,94996.27
2019-05-20T15:35:36.782Z,95005.11
2019-05-20T15:38:05.191Z,95002.94
2019-05-20T15:40:33.656Z,95005.38
2019-05-20T15:43:02.281Z,94993.02
2019-05-20T15:45:30.682Z,94992.80
2019-05-20T15:47:59.264Z,94993.95
2019-05-20T15:50:27.841Z,94994.55
2019-05-20T15:52:56.244Z,94994.40
2019-05-20T15:55:24.648Z,94988.52
2019-05-20T15:57:53.290Z,94989.27
2019-05-20T16:00:21.824Z,94991.11
2019-05-20T16:02:50.289Z,94988.89
2019-05-20T16:05:18.715Z,94986.33
2019-05-20T16:07:47.103Z,94988.89
2019-05-20T16:10:15.673Z,94995.61
2019-05-20T16:12:44.109Z,94990.01
2019-05-20T16:15:12.847Z,94989.48
2019-05-20T16:17:41.294Z,94991.92
2019-05-20T16:20:10.340Z,94989.27
2019-05-20T16:22:41.434Z,94988.47
2019-05-20T16:25:10.403Z,94990.23
2019-05-20T16:27:39.023Z,94988.98
2019-05-20T16:30:11.963Z,94989.94
2019-05-20T16:32:40.518Z,94989.84
2019-05-20T16:35:09.423Z,94988.22
2019-05-20T16:37:37.795Z,94988.52
2019-05-20T16:40:10.341Z,94991.59
2019-05-20T16:42:39.132Z,94987.02
2019-05-20T16:45:11.924Z,94991.47
2019-05-20T16:47:39.679Z,94997.80
2019-05-20T16:50:10.028Z,94996.78
2019-05-20T16:52:38.666Z,94992.27
2019-05-20T16:55:07.305Z,94997.58
2019-05-20T16:57:35.854Z,95007.40
2019-05-20T17:00:10.204Z,94999.92
2019-05-20T17:02:36.176Z,95003.42
2019-05-20T17:05:05.702Z,95006.28
2019-05-20T17:07:34.097Z,95007.40
2019-05-20T17:10:02.839Z,95006.35
2019-05-20T17:12:31.445Z,95008.20
2019-05-20T17:14:59.845Z,95008.73
2019-05-20T17:17:28.259Z,95013.52
2019-05-20T17:19:56.757Z,95012.12
2019-05-20T17:22:25.161Z,95008.14
2019-05-20T17:24:53.569Z,95016.91
2019-05-20T17:27:22.147Z,95011.92
2019-05-20T17:29:50.542Z,95021.36
2019-05-20T17:32:18.945Z,95020.59
2019-05-20T17:34:47.477Z,95017.66
2019-05-20T17:37:15.869Z,95017.34
2019-05-20T17:39:44.271Z,95016.02
2019-05-20T17:42:12.782Z,95015.11
2019-05-20T17:44:41.184Z,95015.84
2019-05-20T17:47:09.745Z,95019.62
2019-05-20T17:49:38.353Z,95023.01
2019-05-20T17:52:06.758Z,95025.14
2019-05-20T17:54:35.241Z,95025.38
2019-05-20T17:57:03.789Z,95029.86
2019-05-20T17:59:32.194Z,95037.23
2019-05-20T18:02:00.657Z,95034.29
2019-05-20T18:04:29.214Z,95030.09
2019-05-20T18:06:57.606Z,95037.54
2019-05-20T18:09:27.713Z,95042.05
2019-05-20T18:11:56.319Z,95040.13
2019-05-20T18:14:24.728Z,95036.63
2019-05-20T18:16:53.144Z,95043.72
2019-05-20T18:19:21.567Z,95039.35
2019-05-20T18:21:49.972Z,95048.13
2019-05-20T18:24:18.375Z,95041.48
2019-05-20T18:26:46.947Z,95039.03
2019-05-20T18:29:15.349Z,95037.92
2019-05-20T18:31:43.755Z,95037.33
2019-05-20T18:34:12.191Z,95040.71
2019-05-20T18:36:40.661Z,95041.16
2019-05-20T18:39:09.074Z,95043.81
2019-05-20T18:41:37.683Z,95039.02
2019-05-20T18:44:06.157Z,95041.05
2019-05-20T18:46:34.557Z,95036.19
2019-05-20T18:49:03.124Z,95041.42
2019-05-20T18:51:31.520Z,95041.42
2019-05-20T18:53:59.994Z,95043.03
2019-05-20T18:56:28.431Z,95032.94
2019-05-20T18:58:56.828Z,95031.82
2019-05-20T19:01:25.223Z,95032.83
2019-05-20T19:03:53.820Z,95034.89
2019-05-20T19:06:22.213Z,95028.49
2019-05-20T19:08:50.634Z,95034.01
2019-05-20T19:11:19.445Z,95032.81
2019-05-20T19:13:47.846Z,95031.83
2019-05-20T19:16:16.253Z,95037.75
2019-05-20T19:18:46.602Z,95033.17
2019-05-20T19:21:15.021Z,95035.55
2019-05-20T19:23:43.487Z,95024.41
2019-05-20T19:26:23.847Z,95020.15
2019-05-20T19:28:42.237Z,95032.81
2019-05-20T19:31:10.640Z,95039.34
2019-05-20T19:33:39.068Z,95049.66
2019-05-20T19:36:09.689Z,95039.34
2019-05-20T19:38:38.095Z,95043.11
2019-05-20T19:41:06.611Z,95047.61
2019-05-20T19:43:35.028Z,95043.19
2019-05-20T19:46:03.542Z,95054.20
2019-05-20T19:48:31.975Z,95054.59
2019-05-20T19:51:00.372Z,95055.19
2019-05-20T19:53:28.769Z,95062.49
2019-05-20T19:55:57.483Z,95053.31
2019-05-20T19:58:25.900Z,95050.73
2019-05-20T20:00:56.691Z,95051.55
2019-05-20T20:03:24.470Z,95049.41
2019-05-20T20:05:52.872Z,95042.98
2019-05-20T20:08:21.267Z,95050.66
2019-05-20T20:10:49.951Z,95057.92
2019-05-20T20:13:18.349Z,95055.11
2019-05-20T20:15:46.751Z,95059.50
2019-05-20T20:18:15.257Z,95065.33
2019-05-20T20:20:43.654Z,95071.23
2019-05-20T20:23:12.049Z,95088.69
2019-05-20T20:25:40.640Z,95091.13
2019-05-20T20:28:09.125Z,95089.16
2019-05-20T20:30:37.525Z,95092.00
2019-05-20T20:33:06.095Z,95086.56
2019-05-20T20:35:38.096Z,95078.60
2019-05-20T20:38:04.677Z,95086.36
2019-05-20T20:40:33.213Z,95078.81
2019-05-20T20:43:01.618Z,95086.90
2019-05-20T20:45:30.021Z,95083.56
2019-05-20T20:47:58.464Z,95088.48
2019-05-20T20:50:26.868Z,95089.20
2019-05-20T20:52:55.264Z,95091.94
2019-05-20T20:55:23.847Z,95094.30
2019-05-20T20:57:52.259Z,95090.14
2019-05-20T21:00:20.718Z,95090.34
2019-05-20T21:02:53.345Z,95090.86
2019-05-20T21:05:19.414Z,95081.19
2019-05-20T21:07:51.520Z,95077.64
2019-05-20T21:10:17.965Z,95082.63
2019-05-20T21:12:46.362Z,95078.14
2019-05-20T21:15:15.096Z,95078.34
2019-05-20T21:17:43.953Z,95080.98
2019-05-20T21:20:12.691Z,95079.66
2019-05-20T21:22:41.111Z,95079.91
2019-05-20T21:25:09.773Z,95083.05
2019-05-20T21:27:38.169Z,95081.84
2019-05-20T21:30:08.301Z,95081.68
2019-05-20T21:32:36.730Z,95093.73
2019-05-20T21:35:05.874Z,95094.42
2019-05-20T21:37:34.331Z,95102.70
2019-05-20T21:40:02.737Z,95099.32
2019-05-20T21:42:31.134Z,95105.75
2019-05-20T21:44:59.535Z,95105.95
2019-05-20T21:47:28.072Z,95109.33
2019-05-20T21:49:56.471Z,95112.70
2019-05-20T21:52:24.868Z,95117.20
2019-05-20T21:54:53.422Z,95125.76
2019-05-20T21:57:21.812Z,95126.36
2019-05-20T21:59:50.216Z,95127.97
2019-05-20T22:02:18.702Z,95136.77
2019-05-20T22:04:47.105Z,95130.86
2019-05-20T22:07:15.630Z,95134.00
2019-05-20T22:09:44.102Z,95138.70
2019-05-20T22:12:12.497Z,95139.94
2019-05-20T22:14:40.909Z,95137.20
2019-05-20T22:17:09.569Z,95138.73
2019-05-20T22:19:37.942Z,95129.86
2019-05-20T22:24:53.708Z,95134.27
2019-05-20T22:27:22.207Z,95141.91
2019-05-20T22:29:50.679Z,95136.80
2019-05-20T22:32:19.092Z,95136.00
2019-05-20T22:34:53.488Z,95137.00
2019-05-20T22:37:17.762Z,95148.13
2019-05-20T22:39:46.160Z,95135.68
2019-05-20T22:42:14.580Z,95141.09
2019-05-20T22:44:42.977Z,95137.92
2019-05-20T22:47:11.445Z,95138.53
2019-05-20T22:49:39.911Z,95142.31
2019-05-20T22:52:08.327Z,95140.26
2019-05-20T22:54:36.728Z,95138.42
2019-05-20T22:57:05.305Z,95134.16
2019-05-20T22:59:33.704Z,95134.44
2019-05-20T23:02:02.127Z,95133.11
2019-05-20T23:04:30.641Z,95135.56
2019-05-20T23:06:59.041Z,95132.91
2019-05-20T23:09:27.433Z,95125.36
2019-05-20T23:11:57.878Z,95124.35
2019-05-20T23:14:26.164Z,95120.58
2019-05-20T23:16:54.564Z,95121.30
2019-05-20T23:19:23.142Z,95121.81
2019-05-20T23:21:51.536Z,95117.23
2019-05-20T23:24:19.939Z,95106.11
2019-05-20T23:26:48.360Z,95103.55
2019-05-20T23:29:16.820Z,95108.23
2019-05-20T23:31:45.218Z,95103.55
2019-05-20T23:34:13.699Z,95099.96
2019-05-20T23:36:42.084Z,95092.09
2019-05-20T23:39:10.555Z,95093.10
2019-05-20T23:41:38.986Z,95094.95
2019-05-20T23:44:07.381Z,95103.83
2019-05-20T23:46:35.778Z,95101.81
2019-05-20T23:49:04.276Z,95110.48
2019-05-20T23:51:32.672Z,95091.33
2019-05-20T23:54:01.106Z,95098.08
2019-05-20T23:56:29.688Z,95085.42
2019-05-20T23:58:58.087Z,95093.41
